createdAt,value
2022-09-04T00:00:48.601Z,18.25
2022-09-04T00:03:32.414Z,18.24
2022-09-04T00:06:06.425Z,18.21
2022-09-04T00:08:57.759Z,18.19
2022-09-04T00:11:44.896Z,18.16
2022-09-04T00:14:21.043Z,18.14
2022-09-04T00:16:54.953Z,18.11
2022-09-04T00:19:30.909Z,18.10
2022-09-04T00:22:01.520Z,18.08
2022-09-04T00:24:33.404Z,18.05
2022-09-04T00:27:07.066Z,18.03
2022-09-04T00:29:45.221Z,17.99
2022-09-04T00:32:21.985Z,17.96
2022-09-04T00:35:05.347Z,17.93
2022-09-04T00:37:39.195Z,17.92
2022-09-04T00:40:15.450Z,17.91
2022-09-04T00:43:02.074Z,17.88
2022-09-04T00:45:42.930Z,17.87
2022-09-04T00:48:26.662Z,17.86
2022-09-04T00:51:22.699Z,17.85
2022-09-04T00:54:03.669Z,17.82
2022-09-04T00:56:58.906Z,17.81
2022-09-04T00:59:35.910Z,17.78
2022-09-04T01:02:13.697Z,17.75
2022-09-04T01:04:50.926Z,17.75
2022-09-04T01:07:37.208Z,17.73
2022-09-04T01:10:35.013Z,17.71
2022-09-04T01:13:10.357Z,17.68
2022-09-04T01:15:44.923Z,17.66
2022-09-04T01:18:16.070Z,17.65
2022-09-04T01:21:06.416Z,17.62
2022-09-04T01:24:02.845Z,17.62
2022-09-04T01:26:41.620Z,17.60
2022-09-04T01:29:24.758Z,17.58
2022-09-04T01:32:03.110Z,17.57
2022-09-04T01:34:41.501Z,17.56
2022-09-04T01:37:25.297Z,17.54
2022-09-04T01:40:04.640Z,17.52
2022-09-04T01:42:45.789Z,17.50
2022-09-04T01:45:15.790Z,17.47
2022-09-04T01:47:50.917Z,17.45
2022-09-04T01:50:25.762Z,17.43
2022-09-04T01:53:03.715Z,17.42
2022-09-04T01:55:36.845Z,17.41
2022-09-04T01:58:17.709Z,17.39
2022-09-04T02:00:57.740Z,17.36
2022-09-04T02:03:39.140Z,17.35
2022-09-04T02:09:55.333Z,17.28
2022-09-04T02:12:35.988Z,17.27
2022-09-04T02:15:13.742Z,17.24
2022-09-04T02:17:48.813Z,17.23
2022-09-04T02:20:24.752Z,17.20
2022-09-04T02:23:05.146Z,17.20
2022-09-04T02:25:39.817Z,17.18
2022-09-04T02:28:23.992Z,17.16
2022-09-04T02:31:01.678Z,17.15
2022-09-04T02:33:37.782Z,17.13
2022-09-04T02:36:13.353Z,17.11
2022-09-04T02:38:52.034Z,17.09
2022-09-04T02:41:27.593Z,17.07
2022-09-04T02:44:10.072Z,17.03
2022-09-04T02:46:54.654Z,17.02
2022-09-04T02:49:36.796Z,16.99
2022-09-04T02:52:18.405Z,16.98
2022-09-04T02:55:04.945Z,16.97
2022-09-04T02:57:44.639Z,16.96
2022-09-04T03:00:18.273Z,16.95
2022-09-04T03:02:56.563Z,16.92
2022-09-04T03:05:30.607Z,16.91
2022-09-04T03:08:06.535Z,16.90
2022-09-04T03:10:42.883Z,16.89
2022-09-04T03:13:20.441Z,16.88
2022-09-04T03:15:54.555Z,16.87
2022-09-04T03:18:31.273Z,16.87
2022-09-04T03:21:03.573Z,16.87
2022-09-04T03:23:41.362Z,16.86
2022-09-04T03:26:19.360Z,16.85
2022-09-04T03:28:58.491Z,16.84
2022-09-04T03:31:46.922Z,16.82
2022-09-04T03:34:31.530Z,16.80
2022-09-04T03:37:14.659Z,16.80
2022-09-04T03:39:55.591Z,16.79
2022-09-04T03:42:31.897Z,16.79
2022-09-04T03:45:12.865Z,16.77
2022-09-04T03:47:48.967Z,16.77
2022-09-04T03:50:29.238Z,16.75
2022-09-04T03:53:06.274Z,16.75
2022-09-04T03:55:55.984Z,16.74
2022-09-04T03:58:29.750Z,16.73
2022-09-04T04:01:06.477Z,16.72
2022-09-04T04:03:55.677Z,16.71
2022-09-04T04:06:36.934Z,16.70
2022-09-04T04:09:19.761Z,16.68
2022-09-04T04:12:16.490Z,16.67
2022-09-04T04:15:03.343Z,16.65
2022-09-04T04:17:49.529Z,16.64
2022-09-04T04:20:30.205Z,16.63
2022-09-04T04:23:19.848Z,16.60
2022-09-04T04:26:07.684Z,16.60
2022-09-04T04:29:11.365Z,16.58
2022-09-04T04:32:10.811Z,16.55
2022-09-04T04:34:53.954Z,16.55
2022-09-04T04:37:35.772Z,16.53
2022-09-04T04:40:16.372Z,16.52
2022-09-04T04:42:55.011Z,16.49
2022-09-04T04:45:48.203Z,16.48
2022-09-04T04:48:50.795Z,16.46
2022-09-04T04:52:01.051Z,16.44
2022-09-04T04:54:48.442Z,16.43
2022-09-04T04:57:28.633Z,16.41
2022-09-04T05:00:08.313Z,16.39
2022-09-04T05:02:43.275Z,16.38
2022-09-04T05:05:18.786Z,16.36
2022-09-04T05:07:54.301Z,16.35
2022-09-04T05:10:31.717Z,16.36
2022-09-04T05:13:14.714Z,16.34
2022-09-04T05:16:08.539Z,16.33
2022-09-04T05:18:47.574Z,16.33
2022-09-04T05:21:23.657Z,16.32
2022-09-04T05:23:58.251Z,16.32
2022-09-04T05:26:31.075Z,16.31
2022-09-04T05:29:08.081Z,16.31
2022-09-04T05:31:49.389Z,16.32
2022-09-04T05:34:27.535Z,16.32
2022-09-04T05:37:08.926Z,16.32
2022-09-04T05:39:49.038Z,16.34
2022-09-04T05:42:40.019Z,16.34
2022-09-04T05:45:18.766Z,16.35
2022-09-04T05:47:59.543Z,16.36
2022-09-04T05:50:42.684Z,16.37
2022-09-04T05:53:41.232Z,16.39
2022-09-04T05:56:56.331Z,16.41
2022-09-04T05:59:47.893Z,16.44
2022-09-04T06:02:41.452Z,16.45
2022-09-04T06:05:21.167Z,16.47
2022-09-04T06:07:59.073Z,16.49
2022-09-04T06:10:36.689Z,16.53
2022-09-04T06:13:22.530Z,16.56
2022-09-04T06:16:06.189Z,16.58
2022-09-04T06:18:53.463Z,16.63
2022-09-04T06:21:53.591Z,16.68
2022-09-04T06:25:10.677Z,16.72
2022-09-04T06:27:58.399Z,16.77
2022-09-04T06:30:31.972Z,16.81
2022-09-04T06:33:17.998Z,16.86
2022-09-04T06:36:05.726Z,16.91
2022-09-04T06:38:43.907Z,16.95
2022-09-04T06:41:35.525Z,17.01
2022-09-04T06:44:13.126Z,17.07
2022-09-04T06:46:46.006Z,17.11
2022-09-04T06:49:18.941Z,17.16
2022-09-04T06:52:11.119Z,17.21
2022-09-04T06:54:50.551Z,17.25
2022-09-04T06:57:39.278Z,17.32
2022-09-04T07:00:10.085Z,17.36
2022-09-04T07:03:03.448Z,17.44
2022-09-04T07:05:42.717Z,17.49
2022-09-04T07:08:19.813Z,17.53
2022-09-04T07:11:02.549Z,17.59
2022-09-04T07:13:55.941Z,17.64
2022-09-04T07:16:42.072Z,17.71
2022-09-04T07:19:38.041Z,17.77
2022-09-04T07:22:20.260Z,17.81
2022-09-04T07:25:05.811Z,17.87
2022-09-04T07:27:55.718Z,17.91
2022-09-04T07:30:26.042Z,17.98
2022-09-04T07:32:58.420Z,18.03
2022-09-04T07:35:36.271Z,18.10
2022-09-04T07:38:12.228Z,18.15
2022-09-04T07:40:45.662Z,18.21
2022-09-04T07:43:21.380Z,18.26
2022-09-04T07:45:58.596Z,18.33
2022-09-04T07:48:33.947Z,18.39
2022-09-04T07:51:10.214Z,18.45
2022-09-04T07:53:54.844Z,18.53
2022-09-04T07:56:35.961Z,18.60
2022-09-04T07:59:25.220Z,18.67
2022-09-04T08:02:31.771Z,18.77
2022-09-04T08:05:20.778Z,18.83
2022-09-04T08:08:03.721Z,18.89
2022-09-04T08:10:36.586Z,18.96
2022-09-04T08:13:18.730Z,19.04
2022-09-04T08:15:54.584Z,19.11
2022-09-04T08:18:36.460Z,19.15
2022-09-04T08:21:21.928Z,19.23
2022-09-04T08:24:29.218Z,19.29
2022-09-04T08:27:10.323Z,19.36
2022-09-04T08:30:04.083Z,19.42
2022-09-04T08:33:02.155Z,19.46
2022-09-04T08:35:34.191Z,19.54
2022-09-04T08:38:37.769Z,19.62
2022-09-04T08:41:45.253Z,19.70
2022-09-04T08:44:56.271Z,19.77
2022-09-04T08:47:56.136Z,19.85
2022-09-04T08:50:51.644Z,19.94
2022-09-04T08:54:20.062Z,20.02
2022-09-04T08:57:02.990Z,20.10
2022-09-04T09:00:07.617Z,20.18
2022-09-04T09:03:17.160Z,20.24
2022-09-04T09:06:29.758Z,20.34
2022-09-04T09:09:26.379Z,20.42
2022-09-04T09:12:41.250Z,20.49
2022-09-04T09:15:42.028Z,20.57
2022-09-04T09:18:35.685Z,20.66
2022-09-04T09:21:09.480Z,20.75
2022-09-04T09:24:16.667Z,20.83
2022-09-04T09:26:59.184Z,20.89
2022-09-04T09:29:53.371Z,20.96
2022-09-04T09:33:01.826Z,21.06
2022-09-04T09:36:01.948Z,21.13
2022-09-04T09:39:02.228Z,21.22
2022-09-04T09:42:02.534Z,21.31
2022-09-04T09:45:01.473Z,21.39
2022-09-04T09:48:21.665Z,21.46
2022-09-04T09:51:39.844Z,21.55
2022-09-04T09:54:55.974Z,21.66
2022-09-04T09:58:03.605Z,21.75
2022-09-04T10:00:46.385Z,21.82
2022-09-04T10:04:01.154Z,21.92
2022-09-04T10:06:50.893Z,22.00
2022-09-04T10:10:02.466Z,22.09
2022-09-04T10:13:16.559Z,22.20
2022-09-04T10:16:34.636Z,22.30
2022-09-04T10:19:44.308Z,22.39
2022-09-04T10:22:42.106Z,22.48
2022-09-04T10:25:36.848Z,22.56
2022-09-04T10:28:40.758Z,22.65
2022-09-04T10:31:39.482Z,22.77
2022-09-04T10:34:38.307Z,22.87
2022-09-04T10:37:26.236Z,22.96
2022-09-04T10:40:25.272Z,23.06
2022-09-04T10:43:10.122Z,23.16
2022-09-04T10:45:40.649Z,23.25
2022-09-04T10:48:36.660Z,23.38
2022-09-04T10:51:31.477Z,23.46
2022-09-04T10:54:19.565Z,23.56
2022-09-04T10:57:01.978Z,23.65
2022-09-04T10:59:55.749Z,23.77
2022-09-04T11:02:46.210Z,23.87
2022-09-04T11:05:36.363Z,24.00
2022-09-04T11:08:39.674Z,24.10
2022-09-04T11:11:25.787Z,24.22
2022-09-04T11:14:17.613Z,24.38
2022-09-04T11:17:11.413Z,24.51
2022-09-04T11:20:19.216Z,24.64
2022-09-04T11:23:31.762Z,24.81
2022-09-04T11:26:43.335Z,24.96
2022-09-04T11:29:35.664Z,25.11
2022-09-04T11:32:33.980Z,25.24
2022-09-04T11:35:25.125Z,25.36
2022-09-04T11:38:08.552Z,25.46
2022-09-04T11:41:29.396Z,25.60
2022-09-04T11:44:28.291Z,25.70
2022-09-04T11:47:12.110Z,25.69
2022-09-04T11:49:59.194Z,25.63
2022-09-04T11:52:46.687Z,25.61
2022-09-04T11:55:42.783Z,25.64
2022-09-04T11:58:28.201Z,25.63
2022-09-04T12:01:16.291Z,25.61
2022-09-04T12:04:23.251Z,25.55
2022-09-04T12:07:07.513Z,25.53
2022-09-04T12:10:05.661Z,25.58
2022-09-04T12:13:15.313Z,25.67
2022-09-04T12:16:18.117Z,25.73
2022-09-04T12:19:14.170Z,25.75
2022-09-04T12:22:36.405Z,25.72
2022-09-04T12:25:27.586Z,25.69
2022-09-04T12:28:44.775Z,25.69
2022-09-04T12:31:37.269Z,25.81
2022-09-04T12:34:32.326Z,25.96
2022-09-04T12:37:28.930Z,26.03
2022-09-04T12:40:29.477Z,26.03
2022-09-04T12:43:06.975Z,26.08
2022-09-04T12:45:46.406Z,26.20
2022-09-04T12:48:24.600Z,26.35
2022-09-04T12:51:06.775Z,26.51
2022-09-04T12:54:02.049Z,26.66
2022-09-04T12:56:45.201Z,26.78
2022-09-04T12:59:33.563Z,26.97
2022-09-04T13:02:06.608Z,27.17
2022-09-04T13:04:47.044Z,27.35
2022-09-04T13:07:32.249Z,27.46
2022-09-04T13:10:10.309Z,27.45
2022-09-04T13:12:51.006Z,27.41
2022-09-04T13:15:28.265Z,27.37
2022-09-04T13:18:10.490Z,27.36
2022-09-04T13:20:47.822Z,27.40
2022-09-04T13:23:48.237Z,27.45
2022-09-04T13:26:33.827Z,27.57
2022-09-04T13:29:16.889Z,27.73
2022-09-04T13:32:00.314Z,27.89
2022-09-04T13:34:41.990Z,27.94
2022-09-04T13:37:23.892Z,27.92
2022-09-04T13:40:04.089Z,27.91
2022-09-04T13:43:18.600Z,27.86
2022-09-04T13:45:51.918Z,27.78
2022-09-04T13:48:32.522Z,27.72
2022-09-04T13:51:13.387Z,27.67
2022-09-04T13:53:55.644Z,27.64
2022-09-04T13:56:30.877Z,27.62
2022-09-04T13:59:08.617Z,27.54
2022-09-04T14:01:45.989Z,27.51
2022-09-04T14:04:23.657Z,27.51
2022-09-04T14:06:52.223Z,27.52
2022-09-04T14:09:21.928Z,27.52
2022-09-04T14:12:07.432Z,27.52
2022-09-04T14:15:11.366Z,27.50
2022-09-04T14:17:52.277Z,27.49
2022-09-04T14:20:25.056Z,27.56
2022-09-04T14:23:03.929Z,27.66
2022-09-04T14:25:45.182Z,27.77
2022-09-04T14:28:22.348Z,27.93
2022-09-04T14:30:59.942Z,28.12
2022-09-04T14:33:37.044Z,28.33
2022-09-04T14:36:22.098Z,28.46
2022-09-04T14:39:13.547Z,28.49
2022-09-04T14:41:55.312Z,28.48
2022-09-04T14:44:32.948Z,28.38
2022-09-04T14:47:11.775Z,28.33
2022-09-04T14:49:47.137Z,28.36
2022-09-04T14:52:20.036Z,28.35
2022-09-04T14:54:53.510Z,28.35
2022-09-04T14:57:29.680Z,28.35
2022-09-04T15:00:06.235Z,28.35
2022-09-04T15:02:42.228Z,28.34
2022-09-04T15:05:21.610Z,28.26
2022-09-04T15:08:02.426Z,28.20
2022-09-04T15:10:49.796Z,28.13
2022-09-04T15:13:38.820Z,28.06
2022-09-04T15:16:19.339Z,28.09
2022-09-04T15:19:05.000Z,28.22
2022-09-04T15:21:43.500Z,28.37
2022-09-04T15:24:24.464Z,28.52
2022-09-04T15:27:03.700Z,28.69
2022-09-04T15:29:40.666Z,28.84
2022-09-04T15:32:13.869Z,28.98
2022-09-04T15:34:42.834Z,29.03
2022-09-04T15:37:16.401Z,29.10
2022-09-04T15:39:54.921Z,29.18
2022-09-04T15:42:42.785Z,29.29
2022-09-04T15:45:23.367Z,29.37
2022-09-04T15:48:09.225Z,29.42
2022-09-04T15:50:50.796Z,29.45
2022-09-04T15:53:27.232Z,29.52
2022-09-04T15:56:10.321Z,29.59
2022-09-04T15:58:53.229Z,29.63
2022-09-04T16:01:28.480Z,29.69
2022-09-04T16:04:07.188Z,29.67
2022-09-04T16:06:45.215Z,29.64
2022-09-04T16:09:23.409Z,29.60
2022-09-04T16:12:01.531Z,29.55
2022-09-04T16:14:34.514Z,29.48
2022-09-04T16:17:15.701Z,29.39
2022-09-04T16:19:55.441Z,29.33
2022-09-04T16:22:32.532Z,29.23
2022-09-04T16:25:10.999Z,29.14
2022-09-04T16:27:45.885Z,29.05
2022-09-04T16:30:30.116Z,28.99
2022-09-04T16:33:00.260Z,28.93
2022-09-04T16:35:31.877Z,28.91
2022-09-04T16:38:09.236Z,28.87
2022-09-04T16:40:44.419Z,28.81
2022-09-04T16:43:24.534Z,28.75
2022-09-04T16:46:07.792Z,28.72
2022-09-04T16:48:45.682Z,28.69
2022-09-04T16:51:37.290Z,28.66
2022-09-04T16:54:18.113Z,28.62
2022-09-04T16:56:50.770Z,28.57
2022-09-04T16:59:28.637Z,28.51
2022-09-04T17:02:01.953Z,28.46
2022-09-04T17:04:45.735Z,28.38
2022-09-04T17:07:21.850Z,28.30
2022-09-04T17:09:58.673Z,28.22
2022-09-04T17:12:39.043Z,28.12
2022-09-04T17:15:18.273Z,28.04
2022-09-04T17:17:47.252Z,27.94
2022-09-04T17:20:38.445Z,27.85
2022-09-04T17:29:02.817Z,27.78
2022-09-04T17:29:18.799Z,27.68
2022-09-04T17:29:34.388Z,27.61
2022-09-04T17:32:10.205Z,27.49
2022-09-04T17:40:32.877Z,27.39
2022-09-04T17:40:32.948Z,27.27
2022-09-04T17:41:36.711Z,27.16
2022-09-04T17:44:19.656Z,27.02
2022-09-04T17:46:56.302Z,26.86
2022-09-04T17:49:34.734Z,26.75
2022-09-04T17:52:07.156Z,26.65
2022-09-04T17:54:42.494Z,26.54
2022-09-04T17:57:28.820Z,26.41
2022-09-04T18:00:03.961Z,26.28
2022-09-04T18:02:43.266Z,26.16
2022-09-04T18:05:20.784Z,26.06
2022-09-04T18:08:07.594Z,25.95
2022-09-04T18:10:54.156Z,25.83
2022-09-04T18:13:37.549Z,25.72
2022-09-04T18:16:16.054Z,25.60
2022-09-04T18:18:49.001Z,25.50
2022-09-04T18:21:23.055Z,25.42
2022-09-04T18:23:59.350Z,25.31
2022-09-04T18:26:41.008Z,25.22
2022-09-04T18:31:48.290Z,25.16
2022-09-04T18:37:08.165Z,25.09
2022-09-04T18:37:20.408Z,25.02
2022-09-04T18:38:20.390Z,24.90
2022-09-04T18:44:47.961Z,24.82
2022-09-04T18:50:24.307Z,24.72
2022-09-04T18:50:45.517Z,24.53
2022-09-04T18:50:47.147Z,24.63
2022-09-04T18:52:19.809Z,24.45
2022-09-04T18:54:52.201Z,24.37
2022-09-04T18:57:28.060Z,24.26
2022-09-04T19:00:08.078Z,24.17
2022-09-04T19:02:50.834Z,24.08
2022-09-04T19:05:32.919Z,24.00
2022-09-04T19:08:23.042Z,23.89
2022-09-04T19:10:55.524Z,23.81
2022-09-04T19:13:29.887Z,23.72
2022-09-04T19:16:04.711Z,23.63
2022-09-04T19:18:49.594Z,23.53
2022-09-04T19:21:30.148Z,23.45
2022-09-04T19:24:06.162Z,23.38
2022-09-04T19:26:39.675Z,23.29
2022-09-04T19:29:16.772Z,23.20
2022-09-04T19:31:58.804Z,23.13
2022-09-04T19:34:36.677Z,23.04
2022-09-04T19:37:44.794Z,22.91
2022-09-04T19:45:54.954Z,22.79
2022-09-04T19:46:04.236Z,22.72
2022-09-04T19:46:26.545Z,22.63
2022-09-04T19:49:50.917Z,22.54
2022-09-04T19:53:24.002Z,22.48
2022-09-04T19:55:00.025Z,22.44
2022-09-04T19:57:45.046Z,22.39
2022-09-04T20:00:43.415Z,22.33
2022-09-04T20:03:30.575Z,22.26
2022-09-04T20:06:21.421Z,22.20
2022-09-04T20:08:59.291Z,22.12
2022-09-04T20:11:36.010Z,22.05
2022-09-04T20:14:22.599Z,21.97
2022-09-04T20:17:08.335Z,21.91
2022-09-04T20:19:42.629Z,21.84
2022-09-04T20:22:17.760Z,21.79
2022-09-04T20:25:01.260Z,21.72
2022-09-04T20:27:37.110Z,21.66
2022-09-04T20:30:12.220Z,21.60
2022-09-04T20:32:49.517Z,21.54
2022-09-04T20:35:33.820Z,21.48
2022-09-04T20:38:23.523Z,21.43
2022-09-04T20:40:56.851Z,21.36
2022-09-04T20:43:32.126Z,21.30
2022-09-04T20:52:14.023Z,21.24
2022-09-04T20:52:58.242Z,21.19
2022-09-04T20:52:59.848Z,21.14
2022-09-04T20:55:25.035Z,21.08
2022-09-04T21:03:14.626Z,21.04
2022-09-04T21:03:21.101Z,20.99
2022-09-04T21:04:10.876Z,20.93
2022-09-04T21:06:47.198Z,20.87
2022-09-04T21:09:29.595Z,20.84
2022-09-04T21:12:13.075Z,20.80
2022-09-04T21:14:46.467Z,20.73
2022-09-04T21:17:35.840Z,20.70
2022-09-04T21:20:25.110Z,20.65
2022-09-04T21:23:13.796Z,20.60
2022-09-04T21:25:51.453Z,20.56
2022-09-04T21:28:40.370Z,20.52
2022-09-04T21:31:20.683Z,20.47
2022-09-04T21:34:08.022Z,20.43
2022-09-04T21:36:44.065Z,20.39
2022-09-04T21:39:33.956Z,20.35
2022-09-04T21:42:32.205Z,20.28
2022-09-04T21:45:23.433Z,20.23
2022-09-04T21:48:23.530Z,20.19
2022-09-04T21:51:21.299Z,20.16
2022-09-04T21:56:21.469Z,20.11
2022-09-04T22:02:27.794Z,20.06
2022-09-04T22:02:48.198Z,20.02
2022-09-04T22:03:33.877Z,19.99
2022-09-04T22:06:11.980Z,19.95
2022-09-04T22:13:30.992Z,19.92
2022-09-04T22:13:45.998Z,19.88
2022-09-04T22:14:57.329Z,19.85
2022-09-04T22:17:36.926Z,19.81
2022-09-04T22:20:22.003Z,19.79
2022-09-04T22:23:24.701Z,19.76
2022-09-04T22:26:17.107Z,19.76
2022-09-04T22:29:16.043Z,19.72
2022-09-04T22:32:20.460Z,19.69
2022-09-04T22:35:22.272Z,19.67
2022-09-04T22:38:19.893Z,19.64
2022-09-04T22:40:58.805Z,19.61
2022-09-04T22:43:29.513Z,19.60
2022-09-04T22:46:56.898Z,19.58
2022-09-04T22:49:49.176Z,19.55
2022-09-04T22:52:35.722Z,19.54
2022-09-04T22:55:39.600Z,19.52
2022-09-04T22:58:24.151Z,19.50
2022-09-04T23:01:35.434Z,19.49
2022-09-04T23:04:20.105Z,19.47
2022-09-04T23:12:28.564Z,19.46
2022-09-04T23:13:53.692Z,19.45
2022-09-04T23:14:02.408Z,19.46
2022-09-04T23:16:44.340Z,19.45
2022-09-04T23:25:44.184Z,19.44
2022-09-04T23:26:50.539Z,19.42
2022-09-04T23:26:51.090Z,19.44
2022-09-04T23:29:21.309Z,19.41
2022-09-04T23:32:10.067Z,19.40
2022-09-04T23:35:14.430Z,19.39
2022-09-04T23:38:01.219Z,19.38
2022-09-04T23:40:53.469Z,19.37
2022-09-04T23:43:50.008Z,19.36
2022-09-04T23:46:41.423Z,19.34
2022-09-04T23:49:44.555Z,19.32
2022-09-04T23:52:22.038Z,19.30
2022-09-04T23:55:28.846Z,19.28
2022-09-04T23:58:51.946Z,19.28
